sensor_id;sensor_type;location;lat;lon;timestamp;P1;durP1;ratioP1;P2;durP2;ratioP2
41115;SDS011;26861;51.824;4.682;2022-12-07T08:19:21;2.38;;;0.80;;
41115;SDS011;26861;51.824;4.682;2022-12-07T08:21:47;2.78;;;0.95;;
41115;SDS011;26861;51.824;4.682;2022-12-07T08:24:13;1.40;;;0.60;;
41115;SDS011;26861;51.824;4.682;2022-12-07T08:26:39;3.22;;;1.02;;
41115;SDS011;26861;51.824;4.682;2022-12-07T08:29:05;1.50;;;0.70;;
41115;SDS011;26861;51.824;4.682;2022-12-07T08:31:31;0.98;;;0.70;;
41115;SDS011;26861;51.824;4.682;2022-12-07T08:33:56;2.15;;;0.75;;
41115;SDS011;26861;51.824;4.682;2022-12-07T08:36:22;1.77;;;0.68;;
41115;SDS011;26861;51.824;4.682;2022-12-07T08:38:48;3.25;;;1.10;;
41115;SDS011;26861;51.824;4.682;2022-12-07T08:41:14;1.40;;;0.80;;
41115;SDS011;26861;51.824;4.682;2022-12-07T08:43:40;2.53;;;1.00;;
41115;SDS011;26861;51.824;4.682;2022-12-07T08:46:08;2.95;;;1.00;;
41115;SDS011;26861;51.824;4.682;2022-12-07T08:48:36;1.88;;;1.23;;
41115;SDS011;26861;51.824;4.682;2022-12-07T08:51:08;4.70;;;1.10;;
41115;SDS011;26861;51.824;4.682;2022-12-07T08:53:33;2.58;;;1.08;;
41115;SDS011;26861;51.824;4.682;2022-12-07T08:56:02;3.97;;;1.23;;
41115;SDS011;26861;51.824;4.682;2022-12-07T08:58:28;5.82;;;1.50;;
41115;SDS011;26861;51.824;4.682;2022-12-07T09:00:54;1.52;;;0.82;;
41115;SDS011;26861;51.824;4.682;2022-12-07T09:03:20;4.10;;;1.20;;
41115;SDS011;26861;51.824;4.682;2022-12-07T09:05:45;4.35;;;1.25;;
41115;SDS011;26861;51.824;4.682;2022-12-07T09:08:12;4.88;;;1.65;;
41115;SDS011;26861;51.824;4.682;2022-12-07T09:10:37;2.78;;;1.35;;
41115;SDS011;26861;51.824;4.682;2022-12-07T09:13:03;4.55;;;1.30;;
41115;SDS011;26861;51.824;4.682;2022-12-07T09:15:29;6.53;;;1.60;;
41115;SDS011;26861;51.824;4.682;2022-12-07T09:17:56;3.00;;;1.35;;
41115;SDS011;26861;51.824;4.682;2022-12-07T09:20:21;5.10;;;1.20;;
41115;SDS011;26861;51.824;4.682;2022-12-07T09:22:47;3.20;;;1.42;;
41115;SDS011;26861;51.824;4.682;2022-12-07T09:25:13;4.43;;;1.40;;
41115;SDS011;26861;51.824;4.682;2022-12-07T09:27:38;4.10;;;1.60;;
41115;SDS011;26861;51.824;4.682;2022-12-07T09:30:04;2.97;;;2.50;;
41115;SDS011;26861;51.824;4.682;2022-12-07T09:32:31;4.18;;;2.80;;
41115;SDS011;26861;51.824;4.682;2022-12-07T09:34:56;3.17;;;1.48;;
41115;SDS011;26861;51.824;4.682;2022-12-07T09:37:22;5.07;;;1.52;;
41115;SDS011;26861;51.824;4.682;2022-12-07T09:39:48;2.50;;;1.13;;
41115;SDS011;26861;51.824;4.682;2022-12-07T09:42:23;3.60;;;1.55;;
41115;SDS011;26861;51.824;4.682;2022-12-07T09:44:57;3.90;;;1.48;;
41115;SDS011;26861;51.824;4.682;2022-12-07T09:47:23;3.25;;;1.40;;
41115;SDS011;26861;51.824;4.682;2022-12-07T09:49:49;1.92;;;1.30;;
41115;SDS011;26861;51.824;4.682;2022-12-07T09:52:25;4.03;;;0.90;;
41115;SDS011;26861;51.824;4.682;2022-12-07T09:54:52;1.90;;;1.20;;
41115;SDS011;26861;51.824;4.682;2022-12-07T09:57:20;2.15;;;1.27;;
41115;SDS011;26861;51.824;4.682;2022-12-07T10:00:14;3.60;;;1.40;;
41115;SDS011;26861;51.824;4.682;2022-12-07T10:02:43;2.17;;;1.00;;
41115;SDS011;26861;51.824;4.682;2022-12-07T10:05:15;5.15;;;1.50;;
41115;SDS011;26861;51.824;4.682;2022-12-07T10:07:49;2.17;;;1.20;;
41115;SDS011;26861;51.824;4.682;2022-12-07T10:10:18;3.08;;;1.40;;
41115;SDS011;26861;51.824;4.682;2022-12-07T10:12:52;1.75;;;1.20;;
41115;SDS011;26861;51.824;4.682;2022-12-07T10:15:20;3.90;;;1.10;;
41115;SDS011;26861;51.824;4.682;2022-12-07T10:17:49;2.67;;;1.40;;
41115;SDS011;26861;51.824;4.682;2022-12-07T10:22:53;2.97;;;1.33;;
41115;SDS011;26861;51.824;4.682;2022-12-07T10:25:22;1.73;;;1.17;;
41115;SDS011;26861;51.824;4.682;2022-12-07T10:27:57;1.83;;;1.40;;
41115;SDS011;26861;51.824;4.682;2022-12-07T10:30:24;2.50;;;1.23;;
41115;SDS011;26861;51.824;4.682;2022-12-07T10:32:50;2.42;;;1.30;;
41115;SDS011;26861;51.824;4.682;2022-12-07T10:37:55;2.33;;;1.75;;
41115;SDS011;26861;51.824;4.682;2022-12-07T10:42:59;2.72;;;1.50;;
41115;SDS011;26861;51.824;4.682;2022-12-07T10:48:41;2.00;;;1.88;;
41115;SDS011;26861;51.824;4.682;2022-12-07T10:59:35;3.83;;;1.15;;
41115;SDS011;26861;51.824;4.682;2022-12-07T11:10:34;2.05;;;1.85;;
41115;SDS011;26861;51.824;4.682;2022-12-07T11:13:18;2.70;;;1.38;;
41115;SDS011;26861;51.824;4.682;2022-12-07T11:38:23;2.15;;;1.23;;
41115;SDS011;26861;51.824;4.682;2022-12-07T11:41:08;1.90;;;0.95;;
41115;SDS011;26861;51.824;4.682;2022-12-07T11:43:58;3.17;;;1.17;;
41115;SDS011;26861;51.824;4.682;2022-12-07T11:49:25;2.28;;;1.08;;
41115;SDS011;26861;51.824;4.682;2022-12-07T11:52:10;1.17;;;0.80;;
41115;SDS011;26861;51.824;4.682;2022-12-07T11:55:06;3.45;;;1.20;;
41115;SDS011;26861;51.824;4.682;2022-12-07T11:57:45;2.03;;;1.33;;
41115;SDS011;26861;51.824;4.682;2022-12-07T12:00:17;3.50;;;1.17;;
41115;SDS011;26861;51.824;4.682;2022-12-07T12:02:44;4.13;;;1.20;;
41115;SDS011;26861;51.824;4.682;2022-12-07T12:05:21;1.52;;;1.05;;
41115;SDS011;26861;51.824;4.682;2022-12-07T12:07:51;2.70;;;1.00;;
41115;SDS011;26861;51.824;4.682;2022-12-07T12:19:29;2.55;;;1.30;;
41115;SDS011;26861;51.824;4.682;2022-12-07T12:22:03;2.22;;;1.00;;
41115;SDS011;26861;51.824;4.682;2022-12-07T12:24:37;2.00;;;0.95;;
41115;SDS011;26861;51.824;4.682;2022-12-07T12:27:06;1.85;;;1.08;;
41115;SDS011;26861;51.824;4.682;2022-12-07T12:29:39;3.65;;;1.27;;
41115;SDS011;26861;51.824;4.682;2022-12-07T12:32:13;1.85;;;1.00;;
41115;SDS011;26861;51.824;4.682;2022-12-07T12:34:57;2.22;;;1.02;;
41115;SDS011;26861;51.824;4.682;2022-12-07T12:42:45;2.20;;;1.00;;
41115;SDS011;26861;51.824;4.682;2022-12-07T12:45:32;2.67;;;1.00;;
41115;SDS011;26861;51.824;4.682;2022-12-07T12:48:01;1.65;;;0.75;;
41115;SDS011;26861;51.824;4.682;2022-12-07T12:55:25;2.60;;;1.13;;
41115;SDS011;26861;51.824;4.682;2022-12-07T12:58:28;1.55;;;0.93;;
41115;SDS011;26861;51.824;4.682;2022-12-07T13:03:59;4.50;;;1.90;;
41115;SDS011;26861;51.824;4.682;2022-12-07T13:08:54;2.03;;;1.70;;
41115;SDS011;26861;51.824;4.682;2022-12-07T13:11:29;2.30;;;2.10;;
41115;SDS011;26861;51.824;4.682;2022-12-07T13:17:02;0.93;;;0.50;;
41115;SDS011;26861;51.824;4.682;2022-12-07T13:27:50;0.65;;;0.63;;
41115;SDS011;26861;51.824;4.682;2022-12-07T13:30:27;1.70;;;1.60;;
41115;SDS011;26861;51.824;4.682;2022-12-07T13:32:55;1.60;;;1.50;;
41115;SDS011;26861;51.824;4.682;2022-12-07T13:38:05;2.33;;;1.60;;
41115;SDS011;26861;51.824;4.682;2022-12-07T13:40:41;1.73;;;1.63;;
41115;SDS011;26861;51.824;4.682;2022-12-07T13:43:14;1.60;;;1.05;;
41115;SDS011;26861;51.824;4.682;2022-12-07T13:45:41;1.42;;;1.33;;
41115;SDS011;26861;51.824;4.682;2022-12-07T13:48:14;1.55;;;1.23;;
41115;SDS011;26861;51.824;4.682;2022-12-07T13:50:53;1.25;;;0.70;;
41115;SDS011;26861;51.824;4.682;2022-12-07T13:53:21;0.85;;;0.65;;
41115;SDS011;26861;51.824;4.682;2022-12-07T13:55:47;0.82;;;0.60;;
41115;SDS011;26861;51.824;4.682;2022-12-07T13:58:13;2.08;;;0.90;;
41115;SDS011;26861;51.824;4.682;2022-12-07T14:00:39;1.48;;;0.90;;
41115;SDS011;26861;51.824;4.682;2022-12-07T14:05:38;4.72;;;0.70;;
41115;SDS011;26861;51.824;4.682;2022-12-07T14:08:05;0.90;;;0.65;;
41115;SDS011;26861;51.824;4.682;2022-12-07T14:15:56;1.50;;;0.52;;
41115;SDS011;26861;51.824;4.682;2022-12-07T14:23:35;1.52;;;0.77;;
41115;SDS011;26861;51.824;4.682;2022-12-07T14:28:43;1.70;;;0.65;;
41115;SDS011;26861;51.824;4.682;2022-12-07T14:31:13;0.80;;;0.70;;
41115;SDS011;26861;51.824;4.682;2022-12-07T14:33:40;1.83;;;0.85;;
41115;SDS011;26861;51.824;4.682;2022-12-07T14:36:08;1.35;;;0.50;;
41115;SDS011;26861;51.824;4.682;2022-12-07T14:38:35;0.77;;;0.50;;
41115;SDS011;26861;51.824;4.682;2022-12-07T14:41:01;1.67;;;0.70;;
41115;SDS011;26861;51.824;4.682;2022-12-07T14:43:47;0.80;;;0.60;;
41115;SDS011;26861;51.824;4.682;2022-12-07T14:46:13;1.52;;;0.80;;
41115;SDS011;26861;51.824;4.682;2022-12-07T14:48:39;2.03;;;0.70;;
41115;SDS011;26861;51.824;4.682;2022-12-07T14:51:04;0.60;;;0.60;;
41115;SDS011;26861;51.824;4.682;2022-12-07T14:53:35;0.90;;;0.60;;
41115;SDS011;26861;51.824;4.682;2022-12-07T14:56:04;2.08;;;0.70;;
41115;SDS011;26861;51.824;4.682;2022-12-07T14:58:30;1.30;;;0.80;;
41115;SDS011;26861;51.824;4.682;2022-12-07T15:00:57;0.93;;;0.60;;
41115;SDS011;26861;51.824;4.682;2022-12-07T15:03:23;1.20;;;0.93;;
41115;SDS011;26861;51.824;4.682;2022-12-07T15:05:48;2.72;;;0.80;;
41115;SDS011;26861;51.824;4.682;2022-12-07T15:08:14;1.63;;;0.80;;
41115;SDS011;26861;51.824;4.682;2022-12-07T15:10:40;2.38;;;0.50;;
41115;SDS011;26861;51.824;4.682;2022-12-07T15:13:06;3.08;;;0.70;;
41115;SDS011;26861;51.824;4.682;2022-12-07T15:15:51;3.33;;;0.90;;
41115;SDS011;26861;51.824;4.682;2022-12-07T15:18:18;1.10;;;0.60;;
41115;SDS011;26861;51.824;4.682;2022-12-07T15:20:45;3.75;;;0.80;;
41115;SDS011;26861;51.824;4.682;2022-12-07T15:23:11;2.78;;;1.10;;
41115;SDS011;26861;51.824;4.682;2022-12-07T15:25:40;1.23;;;0.70;;
41115;SDS011;26861;51.824;4.682;2022-12-07T15:28:10;1.95;;;0.80;;
41115;SDS011;26861;51.824;4.682;2022-12-07T15:30:37;2.00;;;0.90;;
41115;SDS011;26861;51.824;4.682;2022-12-07T15:33:04;3.03;;;0.80;;
41115;SDS011;26861;51.824;4.682;2022-12-07T15:35:29;2.38;;;0.75;;
41115;SDS011;26861;51.824;4.682;2022-12-07T15:37:55;0.80;;;0.70;;
41115;SDS011;26861;51.824;4.682;2022-12-07T15:40:20;2.05;;;0.80;;
41115;SDS011;26861;51.824;4.682;2022-12-07T15:42:46;2.22;;;0.88;;
41115;SDS011;26861;51.824;4.682;2022-12-07T15:45:12;0.93;;;0.70;;
41115;SDS011;26861;51.824;4.682;2022-12-07T15:47:41;0.82;;;0.60;;
41115;SDS011;26861;51.824;4.682;2022-12-07T15:50:11;1.10;;;0.80;;
41115;SDS011;26861;51.824;4.682;2022-12-07T15:52:38;0.85;;;0.60;;
41115;SDS011;26861;51.824;4.682;2022-12-07T15:55:04;0.95;;;0.73;;
41115;SDS011;26861;51.824;4.682;2022-12-07T15:57:31;2.25;;;0.90;;
41115;SDS011;26861;51.824;4.682;2022-12-07T15:59:57;1.48;;;0.57;;
41115;SDS011;26861;51.824;4.682;2022-12-07T16:02:23;3.90;;;0.85;;
41115;SDS011;26861;51.824;4.682;2022-12-07T16:04:49;1.77;;;0.68;;
41115;SDS011;26861;51.824;4.682;2022-12-07T16:07:15;2.97;;;0.88;;
41115;SDS011;26861;51.824;4.682;2022-12-07T16:09:42;2.70;;;0.80;;
41115;SDS011;26861;51.824;4.682;2022-12-07T16:12:09;1.58;;;0.70;;
41115;SDS011;26861;51.824;4.682;2022-12-07T16:14:35;1.95;;;0.90;;
41115;SDS011;26861;51.824;4.682;2022-12-07T16:17:01;0.93;;;0.60;;
41115;SDS011;26861;51.824;4.682;2022-12-07T16:19:27;2.25;;;0.65;;
41115;SDS011;26861;51.824;4.682;2022-12-07T16:21:52;1.75;;;1.00;;
41115;SDS011;26861;51.824;4.682;2022-12-07T16:24:18;1.05;;;0.70;;
41115;SDS011;26861;51.824;4.682;2022-12-07T16:26:44;1.45;;;0.80;;
41115;SDS011;26861;51.824;4.682;2022-12-07T16:29:13;2.28;;;1.02;;
41115;SDS011;26861;51.824;4.682;2022-12-07T16:31:39;0.60;;;0.60;;
41115;SDS011;26861;51.824;4.682;2022-12-07T16:34:05;1.70;;;0.90;;
41115;SDS011;26861;51.824;4.682;2022-12-07T16:36:31;1.13;;;0.60;;
41115;SDS011;26861;51.824;4.682;2022-12-07T16:39:00;1.23;;;0.80;;
41115;SDS011;26861;51.824;4.682;2022-12-07T16:41:26;1.33;;;0.80;;
41115;SDS011;26861;51.824;4.682;2022-12-07T16:43:52;2.25;;;1.27;;
41115;SDS011;26861;51.824;4.682;2022-12-07T16:46:18;3.10;;;1.60;;
41115;SDS011;26861;51.824;4.682;2022-12-07T16:48:44;5.63;;;1.95;;
41115;SDS011;26861;51.824;4.682;2022-12-07T16:51:11;5.63;;;1.60;;
41115;SDS011;26861;51.824;4.682;2022-12-07T16:53:38;1.67;;;1.50;;
41115;SDS011;26861;51.824;4.682;2022-12-07T16:56:13;2.92;;;1.65;;
41115;SDS011;26861;51.824;4.682;2022-12-07T16:58:40;2.88;;;1.77;;
41115;SDS011;26861;51.824;4.682;2022-12-07T17:01:10;2.30;;;1.40;;
41115;SDS011;26861;51.824;4.682;2022-12-07T17:03:37;4.00;;;1.80;;
41115;SDS011;26861;51.824;4.682;2022-12-07T17:06:03;4.78;;;1.65;;
41115;SDS011;26861;51.824;4.682;2022-12-07T17:08:39;2.33;;;1.88;;
41115;SDS011;26861;51.824;4.682;2022-12-07T17:11:09;2.45;;;1.60;;
41115;SDS011;26861;51.824;4.682;2022-12-07T17:13:39;4.78;;;1.40;;
41115;SDS011;26861;51.824;4.682;2022-12-07T17:16:24;2.45;;;1.45;;
41115;SDS011;26861;51.824;4.682;2022-12-07T17:18:50;4.00;;;1.45;;
41115;SDS011;26861;51.824;4.682;2022-12-07T17:21:15;1.80;;;1.30;;
41115;SDS011;26861;51.824;4.682;2022-12-07T17:23:41;3.85;;;1.52;;
41115;SDS011;26861;51.824;4.682;2022-12-07T17:26:11;3.05;;;1.40;;
41115;SDS011;26861;51.824;4.682;2022-12-07T17:28:39;3.95;;;1.88;;
41115;SDS011;26861;51.824;4.682;2022-12-07T17:31:06;3.80;;;1.58;;
41115;SDS011;26861;51.824;4.682;2022-12-07T17:33:33;2.40;;;1.58;;
41115;SDS011;26861;51.824;4.682;2022-12-07T17:35:59;2.83;;;1.40;;
41115;SDS011;26861;51.824;4.682;2022-12-07T17:38:25;5.95;;;1.80;;
41115;SDS011;26861;51.824;4.682;2022-12-07T17:40:53;2.67;;;1.40;;
41115;SDS011;26861;51.824;4.682;2022-12-07T17:43:19;3.72;;;1.60;;
41115;SDS011;26861;51.824;4.682;2022-12-07T17:45:44;4.07;;;1.45;;
41115;SDS011;26861;51.824;4.682;2022-12-07T17:48:10;5.85;;;1.90;;
41115;SDS011;26861;51.824;4.682;2022-12-07T17:50:38;3.80;;;1.90;;
41115;SDS011;26861;51.824;4.682;2022-12-07T17:53:22;5.60;;;1.90;;
41115;SDS011;26861;51.824;4.682;2022-12-07T17:55:48;4.30;;;1.98;;
41115;SDS011;26861;51.824;4.682;2022-12-07T17:58:18;4.78;;;2.15;;
41115;SDS011;26861;51.824;4.682;2022-12-07T18:00:43;5.60;;;2.22;;
41115;SDS011;26861;51.824;4.682;2022-12-07T18:03:09;4.55;;;2.10;;
41115;SDS011;26861;51.824;4.682;2022-12-07T18:05:36;5.90;;;1.77;;
41115;SDS011;26861;51.824;4.682;2022-12-07T18:08:02;3.25;;;2.05;;
41115;SDS011;26861;51.824;4.682;2022-12-07T18:10:28;5.85;;;2.08;;
41115;SDS011;26861;51.824;4.682;2022-12-07T18:12:54;3.00;;;1.98;;
41115;SDS011;26861;51.824;4.682;2022-12-07T18:15:40;4.93;;;2.15;;
41115;SDS011;26861;51.824;4.682;2022-12-07T18:18:05;3.45;;;2.10;;
41115;SDS011;26861;51.824;4.682;2022-12-07T18:20:31;3.45;;;2.17;;
41115;SDS011;26861;51.824;4.682;2022-12-07T18:22:57;3.35;;;2.08;;
41115;SDS011;26861;51.824;4.682;2022-12-07T18:25:22;3.78;;;1.55;;
41115;SDS011;26861;51.824;4.682;2022-12-07T18:27:48;6.05;;;1.90;;
41115;SDS011;26861;51.824;4.682;2022-12-07T18:30:13;4.00;;;2.13;;
41115;SDS011;26861;51.824;4.682;2022-12-07T18:32:39;4.90;;;1.52;;
41115;SDS011;26861;51.824;4.682;2022-12-07T18:35:05;3.35;;;1.90;;
41115;SDS011;26861;51.824;4.682;2022-12-07T18:37:31;3.20;;;1.85;;
41115;SDS011;26861;51.824;4.682;2022-12-07T18:39:57;8.52;;;2.42;;
41115;SDS011;26861;51.824;4.682;2022-12-07T18:42:22;3.28;;;1.85;;
41115;SDS011;26861;51.824;4.682;2022-12-07T18:44:48;5.30;;;2.17;;
41115;SDS011;26861;51.824;4.682;2022-12-07T18:47:14;3.22;;;1.77;;
41115;SDS011;26861;51.824;4.682;2022-12-07T18:49:39;3.70;;;1.77;;
41115;SDS011;26861;51.824;4.682;2022-12-07T18:52:05;4.68;;;1.95;;
41115;SDS011;26861;51.824;4.682;2022-12-07T18:54:32;4.45;;;2.15;;
41115;SDS011;26861;51.824;4.682;2022-12-07T18:56:58;2.58;;;1.65;;
41115;SDS011;26861;51.824;4.682;2022-12-07T18:59:23;6.38;;;1.90;;
41115;SDS011;26861;51.824;4.682;2022-12-07T19:02:18;2.90;;;1.42;;
41115;SDS011;26861;51.824;4.682;2022-12-07T19:04:44;3.08;;;1.80;;
41115;SDS011;26861;51.824;4.682;2022-12-07T19:07:09;2.47;;;1.60;;
41115;SDS011;26861;51.824;4.682;2022-12-07T19:09:36;3.30;;;1.58;;
41115;SDS011;26861;51.824;4.682;2022-12-07T19:12:02;3.25;;;1.60;;
41115;SDS011;26861;51.824;4.682;2022-12-07T19:14:33;3.42;;;2.33;;
41115;SDS011;26861;51.824;4.682;2022-12-07T19:17:01;2.15;;;1.67;;
41115;SDS011;26861;51.824;4.682;2022-12-07T19:19:49;3.05;;;1.42;;
41115;SDS011;26861;51.824;4.682;2022-12-07T19:22:18;3.67;;;1.67;;
41115;SDS011;26861;51.824;4.682;2022-12-07T19:24:50;2.40;;;1.40;;
41115;SDS011;26861;51.824;4.682;2022-12-07T19:27:17;3.78;;;1.42;;
41115;SDS011;26861;51.824;4.682;2022-12-07T19:29:44;3.05;;;1.52;;
41115;SDS011;26861;51.824;4.682;2022-12-07T19:32:10;2.65;;;1.40;;
41115;SDS011;26861;51.824;4.682;2022-12-07T19:34:37;2.33;;;1.40;;
41115;SDS011;26861;51.824;4.682;2022-12-07T19:37:05;1.65;;;1.20;;
41115;SDS011;26861;51.824;4.682;2022-12-07T19:39:32;2.95;;;1.60;;
41115;SDS011;26861;51.824;4.682;2022-12-07T19:41:57;2.42;;;1.38;;
41115;SDS011;26861;51.824;4.682;2022-12-07T19:44:24;2.35;;;1.55;;
41115;SDS011;26861;51.824;4.682;2022-12-07T19:46:52;3.63;;;1.38;;
41115;SDS011;26861;51.824;4.682;2022-12-07T19:49:19;1.38;;;1.13;;
41115;SDS011;26861;51.824;4.682;2022-12-07T19:51:48;3.40;;;1.33;;
41115;SDS011;26861;51.824;4.682;2022-12-07T19:54:15;2.58;;;1.67;;
41115;SDS011;26861;51.824;4.682;2022-12-07T19:56:43;1.80;;;1.23;;
41115;SDS011;26861;51.824;4.682;2022-12-07T19:59:10;1.65;;;1.38;;
41115;SDS011;26861;51.824;4.682;2022-12-07T20:01:37;2.42;;;1.42;;
41115;SDS011;26861;51.824;4.682;2022-12-07T20:04:05;1.92;;;1.30;;
41115;SDS011;26861;51.824;4.682;2022-12-07T20:06:32;2.08;;;1.13;;
41115;SDS011;26861;51.824;4.682;2022-12-07T20:08:57;3.20;;;1.20;;
41115;SDS011;26861;51.824;4.682;2022-12-07T20:11:23;1.52;;;1.20;;
41115;SDS011;26861;51.824;4.682;2022-12-07T20:14:08;1.00;;;0.90;;
41115;SDS011;26861;51.824;4.682;2022-12-07T20:16:35;1.60;;;1.20;;
41115;SDS011;26861;51.824;4.682;2022-12-07T20:19:01;2.78;;;1.50;;
41115;SDS011;26861;51.824;4.682;2022-12-07T20:21:27;4.03;;;1.48;;
41115;SDS011;26861;51.824;4.682;2022-12-07T20:23:53;3.83;;;1.33;;
41115;SDS011;26861;51.824;4.682;2022-12-07T20:26:19;5.85;;;1.42;;
41115;SDS011;26861;51.824;4.682;2022-12-07T20:28:45;4.82;;;1.88;;
41115;SDS011;26861;51.824;4.682;2022-12-07T20:31:12;6.63;;;1.58;;
41115;SDS011;26861;51.824;4.682;2022-12-07T20:33:38;5.28;;;1.42;;
41115;SDS011;26861;51.824;4.682;2022-12-07T20:36:05;8.55;;;1.58;;
41115;SDS011;26861;51.824;4.682;2022-12-07T20:38:32;5.65;;;1.33;;
41115;SDS011;26861;51.824;4.682;2022-12-07T20:40:59;6.13;;;1.45;;
41115;SDS011;26861;51.824;4.682;2022-12-07T20:43:26;6.50;;;1.52;;
41115;SDS011;26861;51.824;4.682;2022-12-07T20:45:52;7.05;;;1.40;;
41115;SDS011;26861;51.824;4.682;2022-12-07T20:48:18;3.00;;;1.48;;
41115;SDS011;26861;51.824;4.682;2022-12-07T20:50:44;3.10;;;1.92;;
41115;SDS011;26861;51.824;4.682;2022-12-07T20:53:09;3.25;;;1.30;;
41115;SDS011;26861;51.824;4.682;2022-12-07T20:55:35;2.70;;;1.65;;
41115;SDS011;26861;51.824;4.682;2022-12-07T20:58:01;3.00;;;1.55;;
41115;SDS011;26861;51.824;4.682;2022-12-07T21:00:27;2.78;;;1.48;;
41115;SDS011;26861;51.824;4.682;2022-12-07T21:02:53;2.97;;;1.33;;
41115;SDS011;26861;51.824;4.682;2022-12-07T21:05:20;3.50;;;1.30;;
41115;SDS011;26861;51.824;4.682;2022-12-07T21:07:46;3.00;;;1.52;;
41115;SDS011;26861;51.824;4.682;2022-12-07T21:10:12;4.32;;;1.58;;
41115;SDS011;26861;51.824;4.682;2022-12-07T21:12:38;3.38;;;1.40;;
41115;SDS011;26861;51.824;4.682;2022-12-07T21:15:04;4.65;;;1.70;;
41115;SDS011;26861;51.824;4.682;2022-12-07T21:17:31;2.90;;;1.50;;
41115;SDS011;26861;51.824;4.682;2022-12-07T21:19:56;3.58;;;1.40;;
41115;SDS011;26861;51.824;4.682;2022-12-07T21:22:22;2.00;;;1.10;;
41115;SDS011;26861;51.824;4.682;2022-12-07T21:24:47;2.55;;;1.38;;
41115;SDS011;26861;51.824;4.682;2022-12-07T21:27:13;3.13;;;1.08;;
41115;SDS011;26861;51.824;4.682;2022-12-07T21:29:38;2.97;;;1.33;;
41115;SDS011;26861;51.824;4.682;2022-12-07T21:32:04;2.70;;;1.15;;
41115;SDS011;26861;51.824;4.682;2022-12-07T21:34:30;1.73;;;0.88;;
41115;SDS011;26861;51.824;4.682;2022-12-07T21:36:56;2.72;;;1.35;;
41115;SDS011;26861;51.824;4.682;2022-12-07T21:39:22;1.83;;;1.02;;
41115;SDS011;26861;51.824;4.682;2022-12-07T21:41:47;1.90;;;1.08;;
41115;SDS011;26861;51.824;4.682;2022-12-07T21:44:13;4.57;;;1.20;;
41115;SDS011;26861;51.824;4.682;2022-12-07T21:46:39;2.30;;;1.10;;
41115;SDS011;26861;51.824;4.682;2022-12-07T21:49:06;4.47;;;1.20;;
41115;SDS011;26861;51.824;4.682;2022-12-07T21:51:36;2.33;;;1.10;;
41115;SDS011;26861;51.824;4.682;2022-12-07T21:54:02;2.08;;;1.00;;
41115;SDS011;26861;51.824;4.682;2022-12-07T21:56:30;5.68;;;1.00;;
41115;SDS011;26861;51.824;4.682;2022-12-07T21:59:04;0.68;;;0.68;;
41115;SDS011;26861;51.824;4.682;2022-12-07T22:01:31;4.40;;;0.88;;
41115;SDS011;26861;51.824;4.682;2022-12-07T22:06:29;1.85;;;1.00;;
41115;SDS011;26861;51.824;4.682;2022-12-07T22:08:54;4.72;;;1.33;;
41115;SDS011;26861;51.824;4.682;2022-12-07T22:11:20;2.10;;;0.93;;
41115;SDS011;26861;51.824;4.682;2022-12-07T22:13:46;1.83;;;0.80;;
41115;SDS011;26861;51.824;4.682;2022-12-07T22:16:31;2.60;;;1.15;;
41115;SDS011;26861;51.824;4.682;2022-12-07T22:18:56;1.65;;;0.77;;
41115;SDS011;26861;51.824;4.682;2022-12-07T22:21:22;1.60;;;0.90;;
41115;SDS011;26861;51.824;4.682;2022-12-07T22:23:49;0.70;;;0.68;;
41115;SDS011;26861;51.824;4.682;2022-12-07T22:26:14;1.33;;;0.77;;
41115;SDS011;26861;51.824;4.682;2022-12-07T22:28:41;4.70;;;1.00;;
41115;SDS011;26861;51.824;4.682;2022-12-07T22:31:09;1.08;;;0.80;;
41115;SDS011;26861;51.824;4.682;2022-12-07T22:33:39;2.78;;;0.73;;
41115;SDS011;26861;51.824;4.682;2022-12-07T22:36:05;2.47;;;0.98;;
41115;SDS011;26861;51.824;4.682;2022-12-07T22:38:32;1.20;;;0.70;;
41115;SDS011;26861;51.824;4.682;2022-12-07T22:40:58;1.75;;;0.80;;
41115;SDS011;26861;51.824;4.682;2022-12-07T22:43:24;1.17;;;0.85;;
41115;SDS011;26861;51.824;4.682;2022-12-07T22:45:54;1.95;;;0.60;;
41115;SDS011;26861;51.824;4.682;2022-12-07T22:50:46;0.65;;;0.60;;
41115;SDS011;26861;51.824;4.682;2022-12-07T22:53:11;0.68;;;0.50;;
41115;SDS011;26861;51.824;4.682;2022-12-07T22:55:38;0.93;;;0.68;;
41115;SDS011;26861;51.824;4.682;2022-12-07T22:58:04;1.95;;;0.90;;
41115;SDS011;26861;51.824;4.682;2022-12-07T23:00:30;0.95;;;0.50;;
41115;SDS011;26861;51.824;4.682;2022-12-07T23:02:55;1.55;;;0.82;;
41115;SDS011;26861;51.824;4.682;2022-12-07T23:05:21;1.35;;;0.70;;
41115;SDS011;26861;51.824;4.682;2022-12-07T23:07:46;1.52;;;0.82;;
41115;SDS011;26861;51.824;4.682;2022-12-07T23:10:12;1.35;;;0.80;;
41115;SDS011;26861;51.824;4.682;2022-12-07T23:12:38;0.80;;;0.77;;
41115;SDS011;26861;51.824;4.682;2022-12-07T23:15:22;1.52;;;0.60;;
41115;SDS011;26861;51.824;4.682;2022-12-07T23:17:47;3.22;;;0.65;;
41115;SDS011;26861;51.824;4.682;2022-12-07T23:20:13;0.63;;;0.50;;
41115;SDS011;26861;51.824;4.682;2022-12-07T23:22:39;2.03;;;0.77;;
41115;SDS011;26861;51.824;4.682;2022-12-07T23:25:04;0.60;;;0.55;;
41115;SDS011;26861;51.824;4.682;2022-12-07T23:27:30;1.80;;;0.65;;
41115;SDS011;26861;51.824;4.682;2022-12-07T23:29:57;0.85;;;0.70;;
41115;SDS011;26861;51.824;4.682;2022-12-07T23:32:23;1.08;;;0.57;;
41115;SDS011;26861;51.824;4.682;2022-12-07T23:34:48;0.93;;;0.60;;
41115;SDS011;26861;51.824;4.682;2022-12-07T23:37:14;1.60;;;1.10;;
41115;SDS011;26861;51.824;4.682;2022-12-07T23:39:39;0.85;;;0.80;;
41115;SDS011;26861;51.824;4.682;2022-12-07T23:42:05;0.98;;;0.50;;
41115;SDS011;26861;51.824;4.682;2022-12-07T23:44:30;1.13;;;0.68;;
41115;SDS011;26861;51.824;4.682;2022-12-07T23:46:56;0.95;;;0.60;;
41115;SDS011;26861;51.824;4.682;2022-12-07T23:49:22;0.95;;;0.70;;
41115;SDS011;26861;51.824;4.682;2022-12-07T23:51:47;0.70;;;0.60;;
41115;SDS011;26861;51.824;4.682;2022-12-07T23:54:13;1.38;;;0.75;;
41115;SDS011;26861;51.824;4.682;2022-12-07T23:56:38;0.68;;;0.60;;
41115;SDS011;26861;51.824;4.682;2022-12-07T23:59:04;2.00;;;0.75;;
